createdAt,value
2019-04-05T00:02:40.335Z,39.20
2019-04-05T00:07:41.868Z,39.00
2019-04-05T00:12:43.225Z,39.00
2019-04-05T00:17:44.549Z,38.90
2019-04-05T00:22:45.904Z,39.00
2019-04-05T00:27:47.232Z,39.00
2019-04-05T00:32:48.664Z,39.00
2019-04-05T00:37:50.019Z,38.90
2019-04-05T00:42:51.369Z,39.00
2019-04-05T00:47:52.830Z,39.00
2019-04-05T00:52:54.160Z,39.00
2019-04-05T00:57:55.633Z,38.80
2019-04-05T01:02:56.941Z,38.80
2019-04-05T01:07:58.506Z,38.80
2019-04-05T01:12:59.821Z,38.90
2019-04-05T01:18:01.179Z,38.80
2019-04-05T01:23:02.916Z,38.90
2019-04-05T01:28:04.594Z,38.70
2019-04-05T01:33:06.158Z,38.70
2019-04-05T01:38:08.998Z,38.80
2019-04-05T01:43:10.747Z,38.70
2019-04-05T01:48:12.105Z,38.80
2019-04-05T01:53:13.434Z,38.70
2019-04-05T01:58:14.779Z,38.80
2019-04-05T02:03:16.103Z,38.80
2019-04-05T02:08:17.864Z,38.70
2019-04-05T02:13:19.283Z,38.60
2019-04-05T02:18:20.631Z,38.60
2019-04-05T02:23:21.978Z,38.60
2019-04-05T02:28:25.476Z,38.60
2019-04-05T02:33:26.676Z,38.70
2019-04-05T02:38:28.154Z,38.70
2019-04-05T02:43:33.222Z,38.50
2019-04-05T02:48:38.172Z,38.60
2019-04-05T02:53:41.472Z,38.50
2019-04-05T02:58:43.694Z,38.60
2019-04-05T03:03:45.307Z,38.60
2019-04-05T03:08:47.455Z,38.60
2019-04-05T03:13:52.186Z,38.50
2019-04-05T03:18:59.197Z,38.60
2019-04-05T03:24:03.626Z,38.50
2019-04-05T03:29:08.543Z,38.40
2019-04-05T03:34:11.444Z,38.40
2019-04-05T03:39:12.982Z,38.50
2019-04-05T03:44:14.390Z,38.40
2019-04-05T03:49:15.994Z,38.50
2019-04-05T03:54:17.512Z,38.40
2019-04-05T03:59:19.228Z,38.40
2019-04-05T04:04:20.739Z,38.50
2019-04-05T04:09:22.558Z,38.30
2019-04-05T04:14:24.365Z,38.30
2019-04-05T04:19:26.657Z,38.30
2019-04-05T04:24:28.804Z,38.30
2019-04-05T04:29:30.420Z,38.20
2019-04-05T04:34:32.012Z,38.20
2019-04-05T04:39:33.461Z,38.30
2019-04-05T04:44:35.065Z,38.30
2019-04-05T04:49:36.678Z,38.20
2019-04-05T04:54:38.171Z,38.30
2019-04-05T04:59:39.599Z,38.10
2019-04-05T05:04:41.316Z,38.20
2019-04-05T05:09:42.842Z,38.10
2019-04-05T05:14:44.573Z,38.20
2019-04-05T05:19:46.061Z,38.20
2019-04-05T05:24:47.514Z,38.30
2019-04-05T05:29:49.023Z,38.20
2019-04-05T05:35:01.363Z,38.20
2019-04-05T05:39:53.654Z,38.10
2019-04-05T05:44:54.949Z,38.10
2019-04-05T05:49:56.264Z,38.00
2019-04-05T05:54:57.560Z,38.10
2019-04-05T06:00:00.520Z,38.20
2019-04-05T06:05:04.973Z,38.20
2019-04-05T06:10:06.896Z,38.20
2019-04-05T06:15:08.842Z,38.10
2019-04-05T06:20:10.956Z,38.30
2019-04-05T06:25:12.470Z,38.40
2019-04-05T06:30:14.105Z,38.40
2019-04-05T06:35:15.591Z,38.30
2019-04-05T06:40:16.950Z,38.50
2019-04-05T06:45:18.245Z,38.60
2019-04-05T06:50:19.581Z,38.60
2019-04-05T06:55:20.892Z,38.70
2019-04-05T07:00:28.555Z,39.30
2019-04-05T07:05:30.073Z,38.80
2019-04-05T07:10:31.375Z,38.90
2019-04-05T07:15:32.796Z,38.90
2019-04-05T07:20:34.179Z,39.10
2019-04-05T07:25:35.905Z,39.20
2019-04-05T07:30:37.488Z,39.10
2019-04-05T07:35:38.833Z,39.30
2019-04-05T07:40:40.250Z,39.40
2019-04-05T07:45:41.540Z,39.30
2019-04-05T07:50:42.864Z,39.50
2019-04-05T07:55:44.175Z,39.50
2019-04-05T08:00:52.086Z,39.30
2019-04-05T08:05:53.709Z,39.20
2019-04-05T08:10:56.619Z,39.20
2019-04-05T08:16:01.188Z,39.40
2019-04-05T08:21:02.068Z,39.20
2019-04-05T08:26:03.456Z,39.10
2019-04-05T08:31:04.784Z,38.90
2019-04-05T08:36:06.187Z,38.90
2019-04-05T08:41:07.740Z,38.90
2019-04-05T08:46:09.145Z,38.80
2019-04-05T08:51:10.469Z,38.80
2019-04-05T08:56:11.876Z,38.70
2019-04-05T09:01:13.163Z,38.90
2019-04-05T09:06:14.500Z,38.70
2019-04-05T09:11:15.793Z,38.40
2019-04-05T09:16:17.355Z,38.50
2019-04-05T09:21:19.110Z,38.40
2019-04-05T09:26:20.406Z,38.60
2019-04-05T09:31:21.835Z,38.50
2019-04-05T09:36:23.203Z,38.00
2019-04-05T09:41:24.480Z,38.60
2019-04-05T09:46:25.821Z,38.00
2019-04-05T09:51:27.169Z,38.30
2019-04-05T09:56:28.658Z,38.00
2019-04-05T10:01:29.977Z,38.10
2019-04-05T10:06:31.276Z,37.80
2019-04-05T10:11:32.600Z,38.30
2019-04-05T10:16:33.918Z,38.10
2019-04-05T10:21:35.235Z,38.40
2019-04-05T10:26:36.656Z,38.20
2019-04-05T10:31:38.012Z,37.80
2019-04-05T10:36:39.311Z,37.60
2019-04-05T10:41:40.632Z,37.50
2019-04-05T10:46:42.062Z,37.70
2019-04-05T10:51:43.479Z,37.90
2019-04-05T10:56:44.809Z,37.70
2019-04-05T11:01:46.129Z,37.70
2019-04-05T11:06:47.447Z,37.10
2019-04-05T11:11:48.806Z,37.50
2019-04-05T11:16:58.242Z,37.50
2019-04-05T11:21:53.575Z,37.10
2019-04-05T11:26:55.088Z,37.00
2019-04-05T11:31:57.667Z,36.90
2019-04-05T11:37:02.706Z,37.30
2019-04-05T11:42:03.526Z,36.80
2019-04-05T11:47:04.936Z,36.90
2019-04-05T11:52:06.255Z,36.80
2019-04-05T11:57:07.577Z,36.90
2019-04-05T12:02:25.927Z,36.90
2019-04-05T12:07:27.515Z,37.30
2019-04-05T12:12:29.006Z,37.20
2019-04-05T12:17:30.327Z,37.10
2019-04-05T12:22:32.623Z,37.20
2019-04-05T12:27:35.092Z,37.50
2019-04-05T12:32:41.281Z,37.70
2019-04-05T12:37:49.454Z,37.60
2019-04-05T12:42:43.734Z,38.10
2019-04-05T12:47:46.078Z,38.30
2019-04-05T12:52:47.548Z,38.40
2019-04-05T12:57:48.954Z,38.50
2019-04-05T13:02:50.986Z,38.30
2019-04-05T13:07:53.162Z,38.40
2019-04-05T13:12:57.729Z,37.90
2019-04-05T13:18:00.413Z,38.10
2019-04-05T13:23:04.436Z,38.10
2019-04-05T13:28:13.097Z,38.30
2019-04-05T13:33:08.095Z,38.50
2019-04-05T13:38:09.392Z,38.50
2019-04-05T13:43:10.793Z,38.50
2019-04-05T13:48:12.114Z,38.40
2019-04-05T13:53:13.464Z,38.30
2019-04-05T13:58:14.856Z,37.70
2019-04-05T14:03:16.231Z,35.00
2019-04-05T14:08:17.570Z,33.90
2019-04-05T14:13:18.874Z,32.60
2019-04-05T14:18:20.872Z,32.60
2019-04-05T14:23:23.916Z,33.00
2019-04-05T14:28:25.452Z,32.40
2019-04-05T14:33:26.753Z,32.10
2019-04-05T14:38:31.080Z,31.70
2019-04-05T14:43:31.531Z,31.40
2019-04-05T14:48:32.831Z,31.10
2019-04-05T14:53:34.528Z,31.00
2019-04-05T14:58:35.872Z,30.90
2019-04-05T15:03:37.306Z,30.90
2019-04-05T15:08:38.903Z,30.80
2019-04-05T15:13:40.287Z,30.50
2019-04-05T15:18:41.615Z,30.60
2019-04-05T15:23:45.441Z,30.40
2019-04-05T15:28:46.160Z,30.30
2019-04-05T15:33:47.547Z,30.20
2019-04-05T15:38:48.961Z,30.40
2019-04-05T15:43:50.405Z,30.40
2019-04-05T15:48:52.443Z,30.90
2019-04-05T15:53:53.743Z,31.30
2019-04-05T15:58:55.119Z,31.80
2019-04-05T16:03:56.425Z,32.30
2019-04-05T16:08:57.984Z,32.60
2019-04-05T16:13:59.409Z,32.90
2019-04-05T16:19:00.898Z,33.20
2019-04-05T16:24:02.554Z,33.20
2019-04-05T16:29:04.017Z,33.70
2019-04-05T16:34:05.488Z,33.70
2019-04-05T16:39:09.008Z,33.90
2019-04-05T16:44:10.359Z,34.10
2019-04-05T16:49:11.679Z,34.30
2019-04-05T16:54:12.991Z,34.60
2019-04-05T16:59:14.315Z,34.70
2019-04-05T17:04:15.763Z,35.00
2019-04-05T17:09:17.068Z,34.80
2019-04-05T17:14:18.495Z,34.90
2019-04-05T17:19:19.944Z,35.20
2019-04-05T17:24:21.266Z,35.30
2019-04-05T17:29:22.667Z,35.60
2019-04-05T17:34:23.993Z,35.60
2019-04-05T17:39:25.303Z,35.60
2019-04-05T17:44:26.622Z,35.80
2019-04-05T17:49:27.945Z,35.70
2019-04-05T17:54:29.282Z,35.90
2019-04-05T17:59:30.992Z,35.90
2019-04-05T18:04:32.317Z,36.00
2019-04-05T18:09:33.642Z,36.10
2019-04-05T18:14:34.970Z,36.10
2019-04-05T18:19:36.266Z,36.30
2019-04-05T18:24:37.597Z,36.20
2019-04-05T18:29:38.921Z,36.50
2019-04-05T18:34:40.237Z,36.40
2019-04-05T18:39:41.606Z,36.60
2019-04-05T18:44:42.910Z,36.50
2019-04-05T18:49:44.241Z,36.60
2019-04-05T18:54:45.554Z,36.70
2019-04-05T18:59:46.886Z,36.70
2019-04-05T19:04:48.198Z,36.70
2019-04-05T19:09:49.529Z,36.70
2019-04-05T19:14:50.933Z,36.80
2019-04-05T19:19:52.378Z,36.90
2019-04-05T19:24:53.744Z,36.90
2019-04-05T19:29:55.103Z,36.80
2019-04-05T19:50:08.926Z,36.90
2019-04-05T19:55:10.533Z,37.00
2019-04-05T20:00:12.254Z,37.00
2019-04-05T20:05:13.662Z,37.10
2019-04-05T20:10:15.179Z,37.10
2019-04-05T20:15:16.503Z,37.20
2019-04-05T20:20:18.362Z,37.20
2019-04-05T20:25:19.633Z,37.30
2019-04-05T20:30:20.988Z,37.20
2019-04-05T20:35:22.298Z,37.20
2019-04-05T20:40:23.626Z,37.00
2019-04-05T20:45:24.949Z,37.30
2019-04-05T20:50:26.265Z,37.20
2019-04-05T20:55:27.567Z,37.80
2019-04-05T21:00:28.885Z,37.20
2019-04-05T21:05:30.179Z,37.30
2019-04-05T21:10:31.548Z,37.20
2019-04-05T21:15:32.840Z,37.40
2019-04-05T21:20:34.151Z,37.30
2019-04-05T21:25:35.476Z,37.30
2019-04-05T21:30:36.809Z,37.30
2019-04-05T21:35:38.180Z,37.40
2019-04-05T21:40:39.530Z,37.30
2019-04-05T21:45:40.869Z,37.20
2019-04-05T21:50:42.905Z,37.10
2019-04-05T21:55:44.231Z,37.20
2019-04-05T22:00:48.275Z,37.20
2019-04-05T22:05:49.715Z,37.10
2019-04-05T22:10:51.151Z,37.30
2019-04-05T22:15:53.050Z,37.30
2019-04-05T22:20:54.426Z,37.30
2019-04-05T22:25:57.105Z,37.30
2019-04-05T22:30:58.611Z,37.30
2019-04-05T22:35:59.973Z,37.30
2019-04-05T22:41:01.358Z,37.30
2019-04-05T22:46:02.910Z,37.30
2019-04-05T22:51:04.517Z,37.40
2019-04-05T22:56:05.859Z,37.40
2019-04-05T23:01:07.327Z,37.30
2019-04-05T23:06:08.720Z,37.40
2019-04-05T23:11:10.085Z,37.40
2019-04-05T23:16:11.545Z,37.50
2019-04-05T23:21:12.956Z,37.40
2019-04-05T23:26:14.321Z,37.40
2019-04-05T23:31:15.711Z,37.40
2019-04-05T23:36:17.063Z,37.30
2019-04-05T23:41:18.451Z,37.50
2019-04-05T23:46:19.833Z,37.30
2019-04-05T23:51:21.199Z,37.50
2019-04-05T23:56:22.678Z,37.40
